createdAt,value
2022-12-11T00:12:44.801Z,15.4
2022-12-11T00:27:54.697Z,16.4
2022-12-11T00:43:07.002Z,15.8
2022-12-11T00:58:16.694Z,15.7
2022-12-11T01:13:26.175Z,14.7
2022-12-11T01:28:35.441Z,15.9
2022-12-11T01:43:44.503Z,15
2022-12-11T01:58:53.700Z,13.8
2022-12-11T02:14:02.815Z,14.8
2022-12-11T02:29:11.525Z,13.9
2022-12-11T02:44:20.784Z,13.9
2022-12-11T02:59:32.320Z,14.6
2022-12-11T03:14:41.941Z,13.7
2022-12-11T03:29:51.320Z,13.5
2022-12-11T03:45:00.645Z,12.7
2022-12-11T04:00:09.934Z,12.1
2022-12-11T04:15:19.040Z,14.2
2022-12-11T04:30:34.647Z,13.7
2022-12-11T04:45:44.426Z,14.5
2022-12-11T05:00:53.777Z,13.2
2022-12-11T05:16:03.453Z,13
2022-12-11T05:31:13.490Z,14
2022-12-11T05:46:23.751Z,15.8
2022-12-11T06:01:33.601Z,16
2022-12-11T06:16:51.035Z,14.6
2022-12-11T06:32:02.075Z,15.1
2022-12-11T06:47:11.936Z,16.3
2022-12-11T07:02:21.896Z,16.5
2022-12-11T07:17:31.852Z,17.3
2022-12-11T07:32:41.574Z,18.2
2022-12-11T07:47:51.352Z,18.8
2022-12-11T08:03:00.675Z,18.3
2022-12-11T08:18:10.782Z,18.8
2022-12-11T08:33:23.124Z,18.2
2022-12-11T08:48:32.598Z,18.8
2022-12-11T09:03:42.033Z,17.6
2022-12-11T09:18:58.415Z,17
2022-12-11T09:34:08.325Z,17.2
2022-12-11T09:49:17.780Z,17.5
2022-12-11T10:04:27.157Z,18.7
2022-12-11T10:19:36.480Z,21.5
2022-12-11T10:34:45.861Z,18.6
2022-12-11T10:49:55.348Z,21.5
2022-12-11T11:05:05.015Z,19
2022-12-11T11:20:14.803Z,17.3
2022-12-11T11:35:24.993Z,17.3
2022-12-11T11:50:34.711Z,15
2022-12-11T12:05:43.864Z,18.1
2022-12-11T12:20:53.383Z,19.1
2022-12-11T12:36:07.508Z,20.6
2022-12-11T12:51:17.627Z,18.3
2022-12-11T13:06:30.264Z,19.3
2022-12-11T13:21:39.518Z,17.4
2022-12-11T13:36:48.852Z,16.3
2022-12-11T13:51:58.210Z,15.9
2022-12-11T14:07:07.714Z,16.2
2022-12-11T14:22:17.064Z,14.1
2022-12-11T14:37:26.263Z,14.8
2022-12-11T14:52:35.720Z,22.3
2022-12-11T15:07:45.214Z,22.2
2022-12-11T15:22:54.999Z,22.2
2022-12-11T15:38:04.107Z,23.5
2022-12-11T15:53:13.469Z,24.8
2022-12-11T16:08:23.284Z,29.9
2022-12-11T16:23:33.611Z,30.5
2022-12-11T16:38:54.409Z,29.5
2022-12-11T16:54:09.757Z,32.3
2022-12-11T17:09:19.267Z,30.1
2022-12-11T17:24:30.532Z,33.7
2022-12-11T17:39:40.115Z,34
2022-12-11T17:54:49.494Z,31.7
2022-12-11T18:10:04.981Z,32.3
2022-12-11T18:25:15.680Z,37.4
2022-12-11T18:40:26.155Z,36.7
2022-12-11T18:55:35.923Z,37.7
2022-12-11T19:10:45.639Z,38.8
2022-12-11T19:25:55.117Z,41.6
2022-12-11T19:41:04.553Z,37.6
2022-12-11T19:56:19.212Z,33.6
2022-12-11T20:11:30.902Z,28.7
2022-12-11T20:26:40.126Z,33.8
2022-12-11T20:41:49.854Z,33.4
2022-12-11T20:57:00.473Z,34.7
2022-12-11T21:15:11.752Z,46.3
2022-12-11T21:30:31.138Z,33.6
2022-12-11T21:46:10.907Z,30.9
2022-12-11T22:05:17.295Z,43.2
2022-12-11T22:20:29.303Z,32.1
2022-12-11T22:35:37.668Z,30.2
2022-12-11T22:50:47.974Z,36.9
2022-12-11T23:06:05.356Z,32.6
2022-12-11T23:21:14.679Z,31.5
2022-12-11T23:36:23.976Z,35.3
2022-12-11T23:51:34.937Z,37.5
